ENSG

Sogndal Airport

Sogndal, Norway
METAR ENSG 191450Z 26012KT 9999 FEW035 SCT050 13/06 Q1013 RMK WIND 3806FT 28017KT
Observed Flight Rules
Aug-19 @ 14:50 UTC (48 minutes ago) Visual Flight Rules
Wind Visibility Clouds
260° at 12 knots 10,000+ meters
  • Few at 3,500' AGL
  • Scattered at 5,000' AGL
Temperatures Readings
Current 13°C / 55°F
Dewpoint 6°C / 43°F
Humidity 63%
Altimeter 29.91" Hg
Pressure 1013 hPa
Elevation 497
METAR ENSG 191450Z 26012KT 9999 FEW035 SCT050 13/06 Q1013 RMK WIND 3806FT 28017KT
Observed Flight Rules
Aug-19 @ 14:50 UTC
(48 minutes ago)
VFR
Wind Visibility
260° at 12 knots 10,000+ meters
Clouds
  • Few at 3,500' AGL
  • Scattered at 5,000' AGL
Temperature Dewpoint
13°C / 55°F 6°C / 43°F
Humidity Altimeter Pressure
63% 29.91" Hg 1013 hPa